PWSweather.com
Personal Weather Stations
Station Observations
KAZPHOEN90
RayThunderhill, Phoenix, AZ

RayThunderhillPhoenix, AZ

Lat: 33.312, Lon: -112.029

Elevation: 1260

Station Type: Davis Vantage VUE

Latest ConditionsUpdated 1:00:02 PM MST Monday, Jul 25, 2016
Currently Today's Max Today's Min Today's Average
Temperature 103.6°F39.8°C 103.6°F39.8°C 84.6°F29.2°C 92.6°F33.7°C
Dew Point 60.9°F16.1°C 64.7°F18.2°C 60.2°F15.7°C 62.4°F16.9°C
Winds 0.7 mph WNW1.1 kmh WNW 3.8 mph E6.1 kmh E - 0.7 mph 1.1 kmh
Wind Gusts 2.0 mph3.2 kmh 6.0 mph9.7 kmh - -
Humidity 25% 49% 25% 38%
Pressure 29.74 in1007.1 mb 29.83 in1010.2 mb 29.68 in1005.1 mb -
Hour Temp Dew Point Humidity Winds Wind Gusts Pressure Precip Precip Rate Daily Precip Total
01:00 PM 103.6°F39.8°C 60.9°F16.1°C 25% 0.7 mph WNW1.1 kmh WNW 2.0 mph3.2 kmh 29.74 in1007.1 mb - 0.00 in0.0 mm 0.00 in0.0 mm
12:45 PM 103.2°F39.6°C 60.5°F15.8°C 25% 0.7 mph WSW1.1 kmh WSW -- 29.75 in1007.5 mb - 0.00 in0.0 mm 0.00 in0.0 mm
12:30 PM 102.5°F39.2°C 61.1°F16.2°C 26% 1.7 mph NNW2.7 kmh NNW 6.0 mph9.7 kmh 29.76 in1007.8 mb - 0.00 in0.0 mm 0.00 in0.0 mm
12:15 PM 101.5°F38.6°C 60.2°F15.7°C 26% 1.3 mph W2.1 kmh W 3.0 mph4.8 kmh 29.76 in1007.8 mb - 0.00 in0.0 mm 0.00 in0.0 mm
12:00 PM 101.1°F38.4°C 61.0°F16.1°C 27% 1.6 mph NW2.6 kmh NW 4.0 mph6.4 kmh 29.78 in1008.5 mb - 0.00 in0.0 mm 0.00 in0.0 mm
11:45 AM 100.4°F38.0°C 61.4°F16.3°C 28% 1.2 mph WNW1.9 kmh WNW 2.0 mph3.2 kmh 29.78 in1008.5 mb - 0.00 in0.0 mm 0.00 in0.0 mm
11:30 AM 99.6°F37.6°C 61.7°F16.5°C 29% 1.1 mph NW1.8 kmh NW 4.0 mph6.4 kmh 29.79 in1008.8 mb - 0.00 in0.0 mm 0.00 in0.0 mm
11:15 AM 99.1°F37.3°C 61.3°F16.3°C 29% 1.4 mph NNW2.3 kmh NNW 3.0 mph4.8 kmh 29.80 in1009.1 mb - 0.00 in0.0 mm 0.00 in0.0 mm
11:00 AM 99.2°F37.3°C 61.4°F16.3°C 29% 0.6 mph NNW1.0 kmh NNW 2.0 mph3.2 kmh 29.80 in1009.1 mb - 0.00 in0.0 mm 0.00 in0.0 mm
10:45 AM 98.0°F36.7°C 62.2°F16.8°C 31% 0.4 mph ESE0.6 kmh ESE 4.0 mph6.4 kmh 29.80 in1009.1 mb - 0.00 in0.0 mm 0.00 in0.0 mm
10:30 AM 96.5°F35.8°C 61.9°F16.6°C 32% 0.9 mph NW1.4 kmh NW 1.0 mph1.6 kmh 29.80 in1009.1 mb - 0.00 in0.0 mm 0.00 in0.0 mm
10:15 AM 95.2°F35.1°C 60.7°F15.9°C 32% 1.2 mph W1.9 kmh W 6.0 mph9.7 kmh 29.81 in1009.5 mb - 0.00 in0.0 mm 0.00 in0.0 mm
09:45 AM 95.2°F35.1°C 61.6°F16.4°C 33% 1.1 mph NW1.8 kmh NW 3.0 mph4.8 kmh 29.82 in1009.8 mb - 0.00 in0.0 mm 0.00 in0.0 mm
09:30 AM 95.5°F35.3°C 61.8°F16.6°C 33% 1.4 mph NW2.3 kmh NW 3.0 mph4.8 kmh 29.82 in1009.8 mb - 0.00 in0.0 mm 0.00 in0.0 mm
09:15 AM 94.5°F34.7°C 61.0°F16.1°C 33% 0.7 mph NW1.1 kmh NW 1.0 mph1.6 kmh 29.82 in1009.8 mb - 0.00 in0.0 mm 0.00 in0.0 mm
09:00 AM 93.2°F34.0°C 61.4°F16.3°C 35% 1.0 mph NW1.6 kmh NW 4.0 mph6.4 kmh 29.82 in1009.8 mb - 0.00 in0.0 mm 0.00 in0.0 mm
08:45 AM 92.8°F33.8°C 61.1°F16.2°C 35% 1.3 mph W2.1 kmh W 3.0 mph4.8 kmh 29.83 in1010.2 mb - 0.00 in0.0 mm 0.00 in0.0 mm
08:30 AM 92.8°F33.8°C 61.1°F16.2°C 35% 2.1 mph NW3.4 kmh NW 2.0 mph3.2 kmh 29.83 in1010.2 mb - 0.00 in0.0 mm 0.00 in0.0 mm
08:15 AM 93.1°F33.9°C 62.2°F16.8°C 36% 0.9 mph NW1.4 kmh NW 2.0 mph3.2 kmh 29.82 in1009.8 mb - 0.00 in0.0 mm 0.00 in0.0 mm
08:00 AM 91.9°F33.3°C 62.7°F17.1°C 38% 0.2 mph SW0.3 kmh SW 1.0 mph1.6 kmh 29.82 in1009.8 mb - 0.00 in0.0 mm 0.00 in0.0 mm
07:45 AM 91.2°F32.9°C 62.7°F17.1°C 39% 0.9 mph NW1.4 kmh NW 1.0 mph1.6 kmh 29.82 in1009.8 mb - 0.00 in0.0 mm 0.00 in0.0 mm
07:30 AM 90.4°F32.4°C 63.5°F17.5°C 41% Calm Calm 2.0 mph3.2 kmh 29.82 in1009.8 mb - 0.00 in0.0 mm 0.00 in0.0 mm
07:15 AM 89.4°F31.9°C 63.3°F17.4°C 42% Calm Calm -- 29.82 in1009.8 mb - 0.00 in0.0 mm 0.00 in0.0 mm
07:00 AM 90.1°F32.3°C 63.2°F17.3°C 41% Calm Calm 1.0 mph1.6 kmh 29.82 in1009.8 mb - 0.00 in0.0 mm 0.00 in0.0 mm
06:45 AM 87.3°F30.7°C 62.7°F17.1°C 44% Calm Calm -- 29.82 in1009.8 mb - 0.00 in0.0 mm 0.00 in0.0 mm
06:30 AM 86.6°F30.3°C 62.7°F17.1°C 45% Calm Calm -- 29.80 in1009.1 mb - 0.00 in0.0 mm 0.00 in0.0 mm
06:15 AM 86.4°F30.2°C 62.5°F16.9°C 45% 0.5 mph E0.8 kmh E 1.0 mph1.6 kmh 29.80 in1009.1 mb - 0.00 in0.0 mm 0.00 in0.0 mm
06:00 AM 86.1°F30.1°C 62.9°F17.2°C 46% 1.2 mph ESE1.9 kmh ESE 3.0 mph4.8 kmh 29.79 in1008.8 mb - 0.00 in0.0 mm 0.00 in0.0 mm
05:45 AM 87.0°F30.6°C 62.5°F16.9°C 44% Calm Calm -- 29.78 in1008.5 mb - 0.00 in0.0 mm 0.00 in0.0 mm
05:30 AM 84.9°F29.4°C 63.0°F17.2°C 48% Calm Calm -- 29.77 in1008.1 mb - 0.00 in0.0 mm 0.00 in0.0 mm
05:15 AM 84.6°F29.2°C 63.3°F17.4°C 49% Calm Calm -- 29.76 in1007.8 mb - 0.00 in0.0 mm 0.00 in0.0 mm
05:00 AM 84.6°F29.2°C 62.2°F16.8°C 47% Calm Calm -- 29.74 in1007.1 mb - 0.00 in0.0 mm 0.00 in0.0 mm
04:45 AM 85.1°F29.5°C 62.6°F17.0°C 47% Calm Calm -- 29.74 in1007.1 mb - 0.00 in0.0 mm 0.00 in0.0 mm
04:30 AM 85.7°F29.8°C 62.5°F16.9°C 46% Calm Calm -- 29.74 in1007.1 mb - 0.00 in0.0 mm 0.00 in0.0 mm
04:15 AM 86.0°F30.0°C 62.8°F17.1°C 46% Calm Calm -- 29.73 in1006.8 mb - 0.00 in0.0 mm 0.00 in0.0 mm
04:00 AM 87.3°F30.7°C 62.7°F17.1°C 44% Calm Calm -- 29.74 in1007.1 mb - 0.00 in0.0 mm 0.00 in0.0 mm
03:45 AM 87.5°F30.8°C 62.9°F17.2°C 44% 0.2 mph S0.3 kmh S 1.0 mph1.6 kmh 29.73 in1006.8 mb - 0.00 in0.0 mm 0.00 in0.0 mm
03:30 AM 88.1°F31.2°C 63.4°F17.4°C 44% 0.4 mph SE0.6 kmh SE 1.0 mph1.6 kmh 29.74 in1007.1 mb - 0.00 in0.0 mm 0.00 in0.0 mm
03:15 AM 88.8°F31.6°C 63.4°F17.4°C 43% 1.9 mph SE3.1 kmh SE 4.0 mph6.4 kmh 29.74 in1007.1 mb - 0.00 in0.0 mm 0.00 in0.0 mm
03:00 AM 89.6°F32.0°C 64.1°F17.8°C 43% 2.3 mph ESE3.7 kmh ESE 6.0 mph9.7 kmh 29.75 in1007.5 mb - 0.00 in0.0 mm 0.00 in0.0 mm
02:45 AM 89.9°F32.2°C 63.8°F17.7°C 42% 0.9 mph SE1.4 kmh SE 2.0 mph3.2 kmh 29.75 in1007.5 mb - 0.00 in0.0 mm 0.00 in0.0 mm
02:30 AM 90.3°F32.4°C 64.1°F17.8°C 42% 1.0 mph SE1.6 kmh SE 4.0 mph6.4 kmh 29.74 in1007.1 mb - 0.00 in0.0 mm 0.00 in0.0 mm
02:15 AM 91.7°F33.2°C 64.7°F18.2°C 41% 3.8 mph E6.1 kmh E 5.0 mph8.0 kmh 29.73 in1006.8 mb - 0.00 in0.0 mm 0.00 in0.0 mm
02:00 AM 92.2°F33.4°C 64.4°F18.0°C 40% 1.9 mph ESE3.1 kmh ESE 5.0 mph8.0 kmh 29.72 in1006.4 mb - 0.00 in0.0 mm 0.00 in0.0 mm
01:45 AM 92.8°F33.8°C 63.5°F17.5°C 38% 1.2 mph SE1.9 kmh SE 3.0 mph4.8 kmh 29.71 in1006.1 mb - 0.00 in0.0 mm 0.00 in0.0 mm
01:30 AM 93.5°F34.2°C 63.3°F17.4°C 37% 0.1 mph SE0.2 kmh SE -- 29.70 in1005.8 mb - 0.00 in0.0 mm 0.00 in0.0 mm
01:15 AM 94.5°F34.7°C 62.6°F17.0°C 35% 0.2 mph WSW0.3 kmh WSW -- 29.69 in1005.4 mb - 0.00 in0.0 mm 0.00 in0.0 mm
01:00 AM 94.5°F34.7°C 62.7°F17.1°C 35% 0.7 mph WSW1.1 kmh WSW 2.0 mph3.2 kmh 29.69 in1005.4 mb - 0.00 in0.0 mm 0.00 in0.0 mm
12:45 AM 94.3°F34.6°C 62.4°F16.9°C 35% 0.2 mph W0.3 kmh W 1.0 mph1.6 kmh 29.69 in1005.4 mb - 0.00 in0.0 mm 0.00 in0.0 mm
12:30 AM 94.6°F34.8°C 61.9°F16.6°C 34% Calm Calm -- 29.69 in1005.4 mb - 0.00 in0.0 mm 0.00 in0.0 mm
12:15 AM 95.4°F35.2°C 61.8°F16.6°C 33% Calm Calm -- 29.70 in1005.8 mb - 0.00 in0.0 mm 0.00 in0.0 mm
12:00 AM 95.6°F35.3°C 61.9°F16.6°C 33% Calm Calm -- 29.68 in1005.1 mb - 0.00 in0.0 mm 0.00 in0.0 mm